createdAt,value
2023-03-11T00:00:47.270Z,79.70
2023-03-11T00:03:17.830Z,79.80
2023-03-11T00:05:46.727Z,79.90
2023-03-11T00:08:18.680Z,80.00
2023-03-11T00:10:47.953Z,80.10
2023-03-11T00:13:16.806Z,80.20
2023-03-11T00:15:48.662Z,80.30
2023-03-11T00:18:17.254Z,80.40
2023-03-11T00:20:46.767Z,80.30
2023-03-11T00:23:15.670Z,80.20
2023-03-11T00:25:45.233Z,80.30
2023-03-11T00:28:14.220Z,80.20
2023-03-11T00:30:43.272Z,80.10
2023-03-11T00:33:13.862Z,80.10
2023-03-11T00:35:42.284Z,80.10
2023-03-11T00:38:15.076Z,80.20
2023-03-11T00:40:42.813Z,80.10
2023-03-11T00:43:10.088Z,80.10
2023-03-11T00:45:37.559Z,80.10
2023-03-11T00:48:05.873Z,80.20
2023-03-11T00:50:35.957Z,80.30
2023-03-11T00:53:05.131Z,80.30
2023-03-11T00:55:34.494Z,80.40
2023-03-11T00:58:06.665Z,80.30
2023-03-11T01:00:46.662Z,80.20
2023-03-11T01:03:13.635Z,80.20
2023-03-11T01:05:40.748Z,80.10
2023-03-11T01:08:07.804Z,80.10
2023-03-11T01:10:35.936Z,80.20
2023-03-11T01:13:04.018Z,80.20
2023-03-11T01:15:35.754Z,80.20
2023-03-11T01:18:04.915Z,80.20
2023-03-11T01:20:33.607Z,80.30
2023-03-11T01:23:00.710Z,80.40
2023-03-11T01:25:28.780Z,80.40
2023-03-11T01:27:59.216Z,80.50
2023-03-11T01:30:28.458Z,80.60
2023-03-11T01:32:58.109Z,80.80
2023-03-11T01:35:28.687Z,80.90
2023-03-11T01:37:56.972Z,81.00
2023-03-11T01:40:39.125Z,81.00
2023-03-11T01:43:38.888Z,81.20
2023-03-11T01:46:27.799Z,81.40
2023-03-11T01:49:01.769Z,81.40
2023-03-11T01:51:45.056Z,81.50
2023-03-11T01:54:26.264Z,81.50
2023-03-11T01:56:54.845Z,81.50
2023-03-11T01:59:26.234Z,81.50
2023-03-11T02:02:09.717Z,81.50
2023-03-11T02:04:37.718Z,81.70
2023-03-11T02:07:08.321Z,81.80
2023-03-11T02:09:35.417Z,81.90
2023-03-11T02:12:04.252Z,81.90
2023-03-11T02:14:31.951Z,82.00
2023-03-11T02:17:00.880Z,82.20
2023-03-11T02:19:58.468Z,82.50
2023-03-11T02:22:29.857Z,82.60
2023-03-11T02:25:17.404Z,82.70
2023-03-11T02:27:49.198Z,82.70
2023-03-11T02:30:19.061Z,82.70
2023-03-11T02:32:48.663Z,82.70
2023-03-11T02:35:17.829Z,82.70
2023-03-11T02:37:52.195Z,82.70
2023-03-11T02:40:23.170Z,82.70
2023-03-11T02:43:08.572Z,82.70
2023-03-11T02:45:39.882Z,82.80
2023-03-11T02:48:11.876Z,82.80
2023-03-11T02:50:40.596Z,82.80
2023-03-11T02:53:08.475Z,82.90
2023-03-11T02:55:35.878Z,83.00
2023-03-11T02:58:03.335Z,83.00
2023-03-11T03:00:30.522Z,83.00
2023-03-11T03:03:02.969Z,83.00
2023-03-11T03:05:30.222Z,83.00
2023-03-11T03:07:59.009Z,83.20
2023-03-11T03:10:26.199Z,84.10
2023-03-11T03:12:53.592Z,83.50
2023-03-11T03:15:20.763Z,83.60
2023-03-11T03:17:48.557Z,83.70
2023-03-11T03:20:15.756Z,83.80
2023-03-11T03:22:48.932Z,83.80
2023-03-11T03:25:18.201Z,83.80
2023-03-11T03:27:45.400Z,83.80
2023-03-11T03:30:13.463Z,83.80
2023-03-11T03:32:40.967Z,83.80
2023-03-11T03:35:12.088Z,83.80
2023-03-11T03:37:56.396Z,83.80
2023-03-11T03:40:23.790Z,83.80
2023-03-11T03:42:52.432Z,83.80
2023-03-11T03:45:20.275Z,83.80
2023-03-11T03:47:48.729Z,83.80
2023-03-11T03:50:16.805Z,83.80
2023-03-11T03:52:46.171Z,84.00
2023-03-11T03:55:13.294Z,84.00
2023-03-11T03:57:40.686Z,84.10
2023-03-11T04:00:11.630Z,84.20
2023-03-11T04:02:41.911Z,84.30
2023-03-11T04:05:18.290Z,84.40
2023-03-11T04:07:46.388Z,84.60
2023-03-11T04:10:14.586Z,84.60
2023-03-11T04:12:43.146Z,84.70
2023-03-11T04:15:10.967Z,84.70
2023-03-11T04:17:39.086Z,84.90
2023-03-11T04:20:08.204Z,84.90
2023-03-11T04:22:35.605Z,85.00
2023-03-11T04:25:03.446Z,85.10
2023-03-11T04:27:32.461Z,85.20
2023-03-11T04:30:00.206Z,85.30
2023-03-11T04:32:27.471Z,85.40
2023-03-11T04:34:54.458Z,85.50
2023-03-11T04:37:21.690Z,85.60
2023-03-11T04:39:53.254Z,85.60
2023-03-11T04:42:20.477Z,85.70
2023-03-11T04:44:48.380Z,85.50
2023-03-11T04:47:15.612Z,85.70
2023-03-11T04:49:42.639Z,85.80
2023-03-11T04:52:11.569Z,85.80
2023-03-11T04:54:38.778Z,86.00
2023-03-11T04:57:06.691Z,86.10
2023-03-11T04:59:34.114Z,86.10
2023-03-11T05:02:01.614Z,86.10
2023-03-11T05:04:29.129Z,86.10
2023-03-11T05:06:56.257Z,86.10
2023-03-11T05:09:25.409Z,86.00
2023-03-11T05:11:53.418Z,86.00
2023-03-11T05:14:21.602Z,86.00
2023-03-11T05:16:49.878Z,86.00
2023-03-11T05:19:34.633Z,85.90
2023-03-11T05:22:08.063Z,86.00
2023-03-11T05:24:35.274Z,85.90
2023-03-11T05:27:03.325Z,86.00
2023-03-11T05:29:31.300Z,86.00
2023-03-11T05:31:59.095Z,86.10
2023-03-11T05:34:26.312Z,86.10
2023-03-11T05:36:53.507Z,86.10
2023-03-11T05:39:20.648Z,86.00
2023-03-11T05:41:48.388Z,85.90
2023-03-11T05:44:16.256Z,85.90
2023-03-11T05:46:43.750Z,85.80
2023-03-11T05:49:10.962Z,86.40
2023-03-11T05:51:38.732Z,85.60
2023-03-11T05:54:11.482Z,85.60
2023-03-11T05:56:41.624Z,85.70
2023-03-11T05:59:09.750Z,85.70
2023-03-11T06:01:37.396Z,85.80
2023-03-11T06:04:05.383Z,85.70
2023-03-11T06:06:32.923Z,85.80
2023-03-11T06:09:00.233Z,85.80
2023-03-11T06:11:29.044Z,85.80
2023-03-11T06:13:58.259Z,85.60
2023-03-11T06:16:27.682Z,85.60
2023-03-11T06:19:00.971Z,85.60
2023-03-11T06:21:31.555Z,85.40
2023-03-11T06:23:59.518Z,85.20
2023-03-11T06:26:28.604Z,85.20
2023-03-11T06:28:55.940Z,85.10
2023-03-11T06:31:26.915Z,85.10
2023-03-11T06:33:58.793Z,85.10
2023-03-11T06:36:26.133Z,85.00
2023-03-11T06:38:54.905Z,85.00
2023-03-11T06:41:25.833Z,84.80
2023-03-11T06:43:53.152Z,84.60
2023-03-11T06:46:23.012Z,84.60
2023-03-11T06:48:54.132Z,84.70
2023-03-11T06:51:22.733Z,84.70
2023-03-11T06:53:52.604Z,84.70
2023-03-11T06:56:23.000Z,84.50
2023-03-11T06:58:55.606Z,84.40
2023-03-11T07:01:27.242Z,84.30
2023-03-11T07:03:56.022Z,84.20
2023-03-11T07:06:26.954Z,84.00
2023-03-11T07:09:01.254Z,83.90
2023-03-11T07:11:29.673Z,83.80
2023-03-11T07:14:04.963Z,83.70
2023-03-11T07:16:35.731Z,83.70
2023-03-11T07:19:10.065Z,83.20
2023-03-11T07:21:37.160Z,83.10
2023-03-11T07:24:05.454Z,83.10
2023-03-11T07:26:34.579Z,83.00
2023-03-11T07:29:02.328Z,83.00
2023-03-11T07:31:32.900Z,83.40
2023-03-11T07:34:02.818Z,84.00
2023-03-11T07:36:30.289Z,85.30
2023-03-11T07:39:04.677Z,84.30
2023-03-11T07:41:35.193Z,83.50
2023-03-11T07:44:04.076Z,82.70
2023-03-11T07:46:32.529Z,82.10
2023-03-11T07:49:01.408Z,81.50
2023-03-11T07:51:32.192Z,80.90
2023-03-11T07:54:01.269Z,80.50
2023-03-11T07:56:32.653Z,80.30
2023-03-11T07:59:02.124Z,80.30
2023-03-11T08:01:36.116Z,80.40
2023-03-11T08:04:06.781Z,80.60
2023-03-11T08:06:36.303Z,80.70
2023-03-11T08:09:08.755Z,80.70
2023-03-11T08:11:36.858Z,80.10
2023-03-11T08:14:04.746Z,79.40
2023-03-11T08:16:32.049Z,78.40
2023-03-11T08:18:59.270Z,77.20
2023-03-11T08:21:29.716Z,76.30
2023-03-11T08:24:00.315Z,75.50
2023-03-11T08:26:27.573Z,74.80
2023-03-11T08:28:56.350Z,74.60
2023-03-11T08:31:30.723Z,74.50
2023-03-11T08:34:01.656Z,73.90
2023-03-11T08:36:29.708Z,73.70
2023-03-11T08:38:56.692Z,73.30
2023-03-11T08:41:23.738Z,73.20
2023-03-11T08:43:52.302Z,73.80
2023-03-11T08:46:39.561Z,74.00
2023-03-11T08:49:06.854Z,73.30
2023-03-11T08:51:35.634Z,73.70
2023-03-11T08:54:03.014Z,73.00
2023-03-11T08:56:30.311Z,71.80
2023-03-11T08:58:57.949Z,70.00
2023-03-11T09:01:25.648Z,68.90
2023-03-11T09:03:53.034Z,67.30
2023-03-11T09:06:20.229Z,66.20
2023-03-11T09:08:48.514Z,65.60
2023-03-11T09:11:17.482Z,64.90
2023-03-11T09:13:45.072Z,64.00
2023-03-11T09:16:20.938Z,63.60
2023-03-11T09:18:48.181Z,63.80
2023-03-11T09:21:15.511Z,63.40
2023-03-11T09:23:44.366Z,63.50
2023-03-11T09:26:13.120Z,63.70
2023-03-11T09:28:41.693Z,63.50
2023-03-11T09:31:09.262Z,63.60
2023-03-11T09:33:42.345Z,63.90
2023-03-11T09:36:14.953Z,64.50
2023-03-11T09:38:42.587Z,65.10
2023-03-11T09:41:20.401Z,65.20
2023-03-11T09:44:06.802Z,64.60
2023-03-11T09:47:15.945Z,64.50
2023-03-11T09:50:00.697Z,64.30
2023-03-11T09:53:02.803Z,64.50
2023-03-11T09:55:50.017Z,64.40
2023-03-11T09:58:45.661Z,64.50
2023-03-11T10:01:21.556Z,64.40
2023-03-11T10:03:53.111Z,64.70
2023-03-11T10:06:26.509Z,65.20
2023-03-11T10:09:12.307Z,66.00
2023-03-11T10:12:07.310Z,66.10
2023-03-11T10:15:16.889Z,66.30
2023-03-11T10:18:20.982Z,66.20
2023-03-11T10:20:59.320Z,67.30
2023-03-11T10:23:40.784Z,67.50
2023-03-11T10:26:37.176Z,66.80
2023-03-11T10:30:03.188Z,65.90
2023-03-11T10:32:43.359Z,65.60
2023-03-11T10:35:40.548Z,65.30
2023-03-11T10:38:46.673Z,64.80
2023-03-11T10:41:44.373Z,65.30
2023-03-11T10:44:20.042Z,64.40
2023-03-11T10:46:47.553Z,64.10
2023-03-11T10:49:16.634Z,63.90
2023-03-11T10:51:52.847Z,63.80
2023-03-11T10:54:39.939Z,63.30
2023-03-11T10:57:22.431Z,62.60
2023-03-11T10:59:55.838Z,63.00
2023-03-11T11:02:32.504Z,61.80
2023-03-11T11:05:34.317Z,61.10
2023-03-11T11:08:16.186Z,61.70
2023-03-11T11:11:02.726Z,61.30
2023-03-11T11:13:34.405Z,61.20
2023-03-11T11:16:21.051Z,61.40
2023-03-11T11:19:02.096Z,61.10
2023-03-11T11:21:48.764Z,61.60
2023-03-11T11:24:30.429Z,62.00
2023-03-11T11:27:25.889Z,62.60
2023-03-11T11:30:08.808Z,62.70
2023-03-11T11:32:37.900Z,62.20
2023-03-11T11:35:12.016Z,61.60
2023-03-11T11:37:52.860Z,61.10
2023-03-11T11:40:32.414Z,60.80
2023-03-11T11:43:13.335Z,60.80
2023-03-11T11:45:45.778Z,61.10
2023-03-11T11:48:25.430Z,61.30
2023-03-11T11:50:57.828Z,60.90
2023-03-11T11:53:41.112Z,61.10
2023-03-11T11:56:08.661Z,61.70
2023-03-11T11:58:36.197Z,62.40
2023-03-11T12:01:19.779Z,62.40
2023-03-11T12:04:47.383Z,61.40
2023-03-11T12:07:46.445Z,59.80
2023-03-11T12:10:33.914Z,59.30
2023-03-11T12:13:25.249Z,58.90
2023-03-11T12:16:06.354Z,58.20
2023-03-11T12:18:41.224Z,58.70
2023-03-11T12:21:33.148Z,58.70
2023-03-11T12:24:12.551Z,58.50
2023-03-11T12:26:43.253Z,58.40
2023-03-11T12:29:36.411Z,58.40
2023-03-11T12:32:03.735Z,58.10
2023-03-11T12:34:34.803Z,58.20
2023-03-11T12:37:13.438Z,58.10
2023-03-11T12:39:40.591Z,58.00
2023-03-11T12:42:18.373Z,58.00
2023-03-11T12:44:47.301Z,57.30
2023-03-11T12:47:14.189Z,57.70
2023-03-11T12:49:45.131Z,57.70
2023-03-11T12:52:12.064Z,57.70
2023-03-11T12:54:48.051Z,57.60
2023-03-11T12:57:35.705Z,57.10
2023-03-11T13:00:22.810Z,57.00
2023-03-11T13:02:58.233Z,57.00
2023-03-11T13:05:55.054Z,57.50
2023-03-11T13:08:25.917Z,57.60
2023-03-11T13:10:55.411Z,57.80
2023-03-11T13:13:25.547Z,57.70
2023-03-11T13:15:53.410Z,57.60
2023-03-11T13:18:33.380Z,57.70
2023-03-11T13:21:02.155Z,57.40
2023-03-11T13:23:38.374Z,57.70
2023-03-11T13:26:23.192Z,58.30
2023-03-11T13:29:05.616Z,58.50
2023-03-11T13:32:17.109Z,57.80
2023-03-11T13:35:01.556Z,57.20
2023-03-11T13:38:25.189Z,57.60
2023-03-11T13:40:53.013Z,57.70
2023-03-11T13:43:24.142Z,58.20
2023-03-11T13:46:06.605Z,58.00
2023-03-11T13:48:44.805Z,57.00
2023-03-11T13:51:33.032Z,56.80
2023-03-11T13:54:22.880Z,56.80
2023-03-11T13:57:03.132Z,56.10
2023-03-11T13:59:35.352Z,55.60
2023-03-11T14:02:17.063Z,55.40
2023-03-11T14:04:58.334Z,54.90
2023-03-11T14:07:35.436Z,55.10
2023-03-11T14:10:11.686Z,54.90
2023-03-11T14:12:39.072Z,54.90
2023-03-11T14:15:09.004Z,54.80
2023-03-11T14:17:35.979Z,54.80
2023-03-11T14:20:16.223Z,54.20
2023-03-11T14:22:48.953Z,54.70
2023-03-11T14:25:36.500Z,55.10
2023-03-11T14:28:05.754Z,54.00
2023-03-11T14:30:34.524Z,54.40
2023-03-11T14:33:05.915Z,53.90
2023-03-11T14:35:34.376Z,53.80
2023-03-11T14:38:01.892Z,53.70
2023-03-11T14:40:37.797Z,53.30
2023-03-11T14:43:08.084Z,53.50
2023-03-11T14:45:42.241Z,53.80
2023-03-11T14:48:28.203Z,53.90
2023-03-11T14:50:58.823Z,52.90
2023-03-11T14:53:36.608Z,52.70
2023-03-11T14:56:08.806Z,53.00
2023-03-11T14:58:51.053Z,53.10
2023-03-11T15:01:25.924Z,52.30
2023-03-11T15:04:44.235Z,52.50
2023-03-11T15:07:11.310Z,52.40
2023-03-11T15:09:40.936Z,52.20
2023-03-11T15:12:31.005Z,52.20
2023-03-11T15:14:58.647Z,52.50
2023-03-11T15:17:37.365Z,52.80
2023-03-11T15:20:34.012Z,53.20
2023-03-11T15:23:04.727Z,53.10
2023-03-11T15:25:36.725Z,53.10
2023-03-11T15:28:25.015Z,52.90
2023-03-11T15:31:31.244Z,52.60
2023-03-11T15:34:32.594Z,53.30
2023-03-11T15:37:20.601Z,53.70
2023-03-11T15:39:52.010Z,53.30
2023-03-11T15:42:27.161Z,53.20
2023-03-11T15:45:04.032Z,52.30
2023-03-11T15:47:31.501Z,52.10
2023-03-11T15:50:03.179Z,51.30
2023-03-11T15:52:30.082Z,50.30
2023-03-11T15:54:56.982Z,49.70
2023-03-11T15:57:29.526Z,49.50
2023-03-11T15:59:58.787Z,49.50
2023-03-11T16:02:31.622Z,49.60
2023-03-11T16:04:59.645Z,49.80
2023-03-11T16:07:39.234Z,50.20
2023-03-11T16:10:11.127Z,49.90
2023-03-11T16:12:38.715Z,49.70
2023-03-11T16:15:10.859Z,49.10
2023-03-11T16:17:49.271Z,48.90
2023-03-11T16:20:17.908Z,48.70
2023-03-11T16:22:45.211Z,48.40
2023-03-11T16:25:31.744Z,48.30
2023-03-11T16:27:59.936Z,47.80
2023-03-11T16:30:30.312Z,47.80
2023-03-11T16:32:57.784Z,47.70
2023-03-11T16:35:25.342Z,47.60
2023-03-11T16:37:52.421Z,46.80
2023-03-11T16:40:25.189Z,46.90
2023-03-11T16:43:00.161Z,46.90
2023-03-11T16:45:27.270Z,47.30
2023-03-11T16:47:54.214Z,47.60
2023-03-11T16:50:24.226Z,47.70
2023-03-11T16:52:53.063Z,48.00
2023-03-11T16:55:20.900Z,48.30
2023-03-11T16:57:48.056Z,48.70
2023-03-11T17:00:15.964Z,49.20
2023-03-11T17:02:42.872Z,49.50
2023-03-11T17:05:10.586Z,49.90
2023-03-11T17:07:40.131Z,50.40
2023-03-11T17:10:09.317Z,51.30
2023-03-11T17:12:36.394Z,51.20
2023-03-11T17:15:07.038Z,51.60
2023-03-11T17:17:33.980Z,52.00
2023-03-11T17:20:01.109Z,52.40
2023-03-11T17:22:28.054Z,52.80
2023-03-11T17:24:55.030Z,53.10
2023-03-11T17:27:21.962Z,53.50
2023-03-11T17:29:49.079Z,53.80
2023-03-11T17:32:17.603Z,54.10
2023-03-11T17:34:44.685Z,54.50
2023-03-11T17:37:12.056Z,54.80
2023-03-11T17:39:39.026Z,55.10
2023-03-11T17:42:06.551Z,55.50
2023-03-11T17:44:49.980Z,55.70
2023-03-11T17:47:19.483Z,56.10
2023-03-11T17:49:46.579Z,56.40
2023-03-11T17:52:13.549Z,56.70
2023-03-11T17:54:40.516Z,57.00
2023-03-11T17:57:07.500Z,57.40
2023-03-11T17:59:34.595Z,57.70
2023-03-11T18:02:01.562Z,58.10
2023-03-11T18:04:28.733Z,58.30
2023-03-11T18:06:56.408Z,58.60
2023-03-11T18:09:23.491Z,59.00
2023-03-11T18:11:50.441Z,59.20
2023-03-11T18:14:17.534Z,59.50
2023-03-11T18:16:44.693Z,59.70
2023-03-11T18:19:11.597Z,60.00
2023-03-11T18:21:38.764Z,60.30
2023-03-11T18:24:06.386Z,60.60
2023-03-11T18:26:33.456Z,60.90
2023-03-11T18:29:01.140Z,61.20
2023-03-11T18:31:29.992Z,61.40
2023-03-11T18:34:01.445Z,61.80
2023-03-11T18:36:35.810Z,61.90
2023-03-11T18:39:04.875Z,62.20
2023-03-11T18:41:34.731Z,62.30
2023-03-11T18:44:02.381Z,62.60
2023-03-11T18:46:32.560Z,62.70
2023-03-11T18:49:01.175Z,63.00
2023-03-11T18:51:31.323Z,63.20
2023-03-11T18:53:59.673Z,63.30
2023-03-11T18:56:27.473Z,63.30
2023-03-11T18:58:55.960Z,63.60
2023-03-11T19:01:23.381Z,63.80
2023-03-11T19:03:54.023Z,63.90
2023-03-11T19:06:22.967Z,64.10
2023-03-11T19:08:50.682Z,64.00
2023-03-11T19:11:21.776Z,64.10
2023-03-11T19:13:48.812Z,64.30
2023-03-11T19:16:19.890Z,64.40
2023-03-11T19:18:47.964Z,64.70
2023-03-11T19:21:16.208Z,64.80
2023-03-11T19:23:44.351Z,64.80
2023-03-11T19:26:11.713Z,64.90
2023-03-11T19:28:38.610Z,65.10
2023-03-11T19:31:05.818Z,65.30
2023-03-11T19:33:33.272Z,65.40
2023-03-11T19:36:04.481Z,65.50
2023-03-11T19:38:32.032Z,65.70
2023-03-11T19:41:20.599Z,65.80
2023-03-11T19:43:49.330Z,66.10
2023-03-11T19:46:20.763Z,66.00
2023-03-11T19:48:47.984Z,66.20
2023-03-11T19:51:17.066Z,66.40
2023-03-11T19:53:45.577Z,66.50
2023-03-11T19:56:12.452Z,66.50
2023-03-11T19:58:42.438Z,66.60
2023-03-11T20:01:20.362Z,66.70
2023-03-11T20:03:47.659Z,66.90
2023-03-11T20:06:16.587Z,66.90
2023-03-11T20:08:43.836Z,67.00
2023-03-11T20:11:10.944Z,67.20
2023-03-11T20:13:40.979Z,67.50
2023-03-11T20:16:13.162Z,67.60
2023-03-11T20:18:40.431Z,68.30
2023-03-11T20:21:09.951Z,67.80
2023-03-11T20:23:38.129Z,67.90
2023-03-11T20:26:10.893Z,68.00
2023-03-11T20:28:38.491Z,67.90
2023-03-11T20:31:22.231Z,68.00
2023-03-11T20:33:50.833Z,68.10
2023-03-11T20:36:25.888Z,68.10
2023-03-11T20:38:54.817Z,68.20
2023-03-11T20:41:23.972Z,68.30
2023-03-11T20:43:57.009Z,68.40
2023-03-11T20:46:24.647Z,68.40
2023-03-11T20:48:52.209Z,68.40
2023-03-11T20:51:20.735Z,68.40
2023-03-11T20:53:48.999Z,68.50
2023-03-11T20:56:23.451Z,68.40
2023-03-11T20:58:51.737Z,68.50
2023-03-11T21:01:27.016Z,68.50
2023-03-11T21:03:57.276Z,68.50
2023-03-11T21:06:36.830Z,68.50
2023-03-11T21:09:08.387Z,68.40
2023-03-11T21:11:35.416Z,68.30
2023-03-11T21:14:02.923Z,68.30
2023-03-11T21:16:30.292Z,68.30
2023-03-11T21:18:57.341Z,68.30
2023-03-11T21:21:24.499Z,68.30
2023-03-11T21:23:51.680Z,68.30
2023-03-11T21:26:18.751Z,68.20
2023-03-11T21:28:46.672Z,68.20
2023-03-11T21:31:18.776Z,68.20
2023-03-11T21:33:47.187Z,68.20
2023-03-11T21:36:16.207Z,68.20
2023-03-11T21:38:43.707Z,68.20
2023-03-11T21:41:20.558Z,68.10
2023-03-11T21:43:48.819Z,68.20
2023-03-11T21:46:20.061Z,68.10
2023-03-11T21:48:48.021Z,68.00
2023-03-11T21:51:17.116Z,68.00
2023-03-11T21:53:44.505Z,68.10
2023-03-11T21:56:13.337Z,68.00
2023-03-11T21:58:41.021Z,68.10
2023-03-11T22:01:09.914Z,68.10
2023-03-11T22:03:37.980Z,68.00
2023-03-11T22:06:09.055Z,68.00
2023-03-11T22:08:36.872Z,68.10
2023-03-11T22:11:08.852Z,68.10
2023-03-11T22:13:36.127Z,68.10
2023-03-11T22:16:06.377Z,68.10
2023-03-11T22:18:33.685Z,68.10
2023-03-11T22:21:01.281Z,68.20
2023-03-11T22:23:28.495Z,68.20
2023-03-11T22:25:55.597Z,68.10
2023-03-11T22:28:22.967Z,68.10
2023-03-11T22:30:50.134Z,68.00
2023-03-11T22:33:17.517Z,68.10
2023-03-11T22:35:56.603Z,68.10
2023-03-11T22:38:24.285Z,68.10
2023-03-11T22:40:51.996Z,68.00
2023-03-11T22:43:19.421Z,67.90
2023-03-11T22:45:46.471Z,67.90
2023-03-11T22:48:13.685Z,67.80
2023-03-11T22:50:44.402Z,67.70
2023-03-11T22:53:12.930Z,67.70
2023-03-11T22:55:44.233Z,67.70
2023-03-11T22:58:12.317Z,67.60
2023-03-11T23:00:40.547Z,67.50
2023-03-11T23:03:07.655Z,67.40
2023-03-11T23:05:41.740Z,67.40
2023-03-11T23:08:12.229Z,67.30
2023-03-11T23:10:47.554Z,67.70
2023-03-11T23:13:15.385Z,67.20
2023-03-11T23:15:44.557Z,67.20
2023-03-11T23:18:12.827Z,67.10
2023-03-11T23:20:42.295Z,67.10
2023-03-11T23:23:10.771Z,67.10
2023-03-11T23:25:39.759Z,67.00
2023-03-11T23:28:07.811Z,67.00
2023-03-11T23:30:35.778Z,67.00
2023-03-11T23:33:02.974Z,67.00
2023-03-11T23:35:32.488Z,66.90
2023-03-11T23:38:00.225Z,66.90
2023-03-11T23:40:27.989Z,66.90
2023-03-11T23:42:55.091Z,66.80
2023-03-11T23:45:22.267Z,66.80
2023-03-11T23:47:49.505Z,66.90
2023-03-11T23:50:16.570Z,66.80
2023-03-11T23:52:43.555Z,66.90
2023-03-11T23:55:11.132Z,66.90
2023-03-11T23:57:38.267Z,66.90
